Time;durP1;ratioP1;P1;durP2;ratioP2;P2;SDS_P1;SDS_P2;PMS_P1;PMS_P2;Temp;Humidity;BMP_temperature;BMP_pressure;BME280_temperature;BME280_humidity;BME280_pressure;Samples;Min_cycle;Max_cycle;Signal;HPM_P1;HPM_P2
2023/01/25 04:28:22;;;;;;;13.68;9.70;;;;;;;14.45;47.31;100718.25;5713370;22;20045;-83
2023/01/25 04:30:50;;;;;;;12.30;9.10;;;;;;;14.42;47.37;100707.78;5073327;28;20036;-83
2023/01/25 04:33:17;;;;;;;13.13;9.63;;;;;;;14.47;47.51;100716.47;5075033;28;20504;-84
2023/01/25 04:35:55;;;;;;;11.88;8.70;;;;;;;14.38;47.40;100708.72;5074328;28;20041;-83
2023/01/25 04:38:41;;;;;;;13.23;10.02;;;;;;;14.39;47.46;100715.72;5060873;28;20045;-83
2023/01/25 04:41:17;;;;;;;12.32;9.68;;;;;;;14.37;47.60;100720.09;5073800;28;20048;-83
2023/01/25 04:43:54;;;;;;;12.60;9.13;;;;;;;14.35;47.57;100714.03;5054623;28;20052;-83
2023/01/25 04:46:53;;;;;;;11.60;9.25;;;;;;;14.39;47.47;100726.22;5075506;28;20021;-84
2023/01/25 04:49:20;;;;;;;11.77;8.95;;;;;;;14.37;47.35;100717.47;5071523;28;20060;-83
2023/01/25 04:51:47;;;;;;;13.27;9.93;;;;;;;14.37;47.27;100727.97;5052944;28;20021;-83
2023/01/25 04:54:12;;;;;;;11.98;9.25;;;;;;;14.36;47.50;100726.25;5046601;28;20025;-83
2023/01/25 04:56:46;;;;;;;11.23;8.23;;;;;;;14.33;47.54;100713.16;5065471;28;20032;-83
2023/01/25 04:59:13;;;;;;;13.30;9.10;;;;;;;14.31;47.30;100714.94;5051156;28;20031;-83
2023/01/25 05:01:41;;;;;;;13.38;9.20;;;;;;;14.28;47.22;100709.75;5068020;28;20108;-82
2023/01/25 05:04:08;;;;;;;12.60;9.50;;;;;;;14.30;47.31;100710.56;5066883;28;20036;-83
2023/01/25 05:06:37;;;;;;;11.60;8.70;;;;;;;14.28;47.12;100707.13;5066344;28;20048;-83
2023/01/25 05:09:05;;;;;;;12.20;7.88;;;;;;;14.27;47.26;100708.84;5065183;28;20045;-83
2023/01/25 05:11:31;;;;;;;12.80;9.23;;;;;;;14.29;47.41;100707.06;5046812;28;20017;-83
2023/01/25 05:13:56;;;;;;;11.00;8.73;;;;;;;14.24;47.43;100695.75;5046126;28;20021;-83
2023/01/25 05:16:22;;;;;;;12.40;9.05;;;;;;;14.25;47.28;100696.63;5062158;28;20044;-82
2023/01/25 05:18:48;;;;;;;11.52;8.68;;;;;;;14.26;47.27;100703.63;5062643;28;20021;-82
2023/01/25 05:23:58;;;;;;;11.55;8.57;;;;;;;14.26;47.49;100693.13;5051221;28;20040;-82
2023/01/25 05:29:09;;;;;;;12.13;9.20;;;;;;;14.23;47.16;100702.78;5040577;28;20129;-82
2023/01/25 05:31:34;;;;;;;10.50;7.85;;;;;;;14.23;47.38;100708.03;5038890;28;20083;-82
2023/01/25 05:34:00;;;;;;;10.82;8.20;;;;;;;14.19;47.25;100702.84;5039564;28;20025;-82
2023/01/25 05:36:25;;;;;;;11.65;8.70;;;;;;;14.13;47.24;100698.53;5038218;28;20108;-83
2023/01/25 05:38:52;;;;;;;11.52;8.98;;;;;;;14.22;47.37;100718.53;5039476;28;20017;-82
2023/01/25 05:41:18;;;;;;;11.80;8.15;;;;;;;14.17;47.32;100694.09;5037470;28;20022;-82
2023/01/25 05:43:47;;;;;;;12.25;9.02;;;;;;;14.17;47.07;100701.97;5046380;28;20028;-82
2023/01/25 05:46:13;;;;;;;10.40;8.40;;;;;;;14.18;47.18;100704.59;5042145;28;20028;-82
2023/01/25 05:48:38;;;;;;;12.45;8.68;;;;;;;14.16;47.60;100701.13;5059725;28;20028;-82
2023/01/25 05:51:04;;;;;;;10.23;7.72;;;;;;;14.14;47.36;100709.91;5061485;28;20110;-82
2023/01/25 05:53:31;;;;;;;10.77;8.13;;;;;;;14.16;47.12;100714.25;5054539;28;20030;-82
2023/01/25 05:56:04;;;;;;;11.70;8.82;;;;;;;14.11;47.33;100710.81;5039555;28;20021;-81
2023/01/25 05:58:29;;;;;;;11.45;8.05;;;;;;;14.13;47.13;100709.03;5039511;28;20021;-82
2023/01/25 06:00:54;;;;;;;11.27;8.50;;;;;;;14.15;47.24;100712.53;5036216;28;20051;-81
2023/01/25 06:03:20;;;;;;;11.80;8.90;;;;;;;14.11;47.18;100716.06;5052207;28;20584;-81
2023/01/25 06:05:46;;;;;;;11.55;8.35;;;;;;;14.14;47.22;100718.63;5035205;28;20485;-81
2023/01/25 06:08:11;;;;;;;12.20;8.68;;;;;;;14.15;47.23;100725.66;5051780;28;20405;-81
2023/01/25 06:10:36;;;;;;;13.05;9.23;;;;;;;14.11;47.05;100721.31;5035861;28;20056;-81
2023/01/25 06:13:02;;;;;;;10.95;8.10;;;;;;;14.13;47.22;100729.19;5035050;28;20026;-82
2023/01/25 06:15:27;;;;;;;10.40;7.97;;;;;;;14.12;47.10;100723.03;5051360;28;20041;-81
2023/01/25 06:17:56;;;;;;;11.50;8.40;;;;;;;14.11;47.13;100718.69;5051484;28;20021;-82
2023/01/25 06:20:21;;;;;;;11.57;8.35;;;;;;;14.10;47.12;100719.59;5053062;28;20025;-81
2023/01/25 06:22:51;;;;;;;10.90;7.80;;;;;;;14.12;47.29;100727.41;5055456;28;20099;-81
2023/01/25 06:25:17;;;;;;;11.52;8.18;;;;;;;14.07;47.22;100725.72;5055605;28;20029;-81
2023/01/25 06:27:42;;;;;;;10.57;7.57;;;;;;;14.02;47.06;100719.66;5054771;28;20064;-81
2023/01/25 06:30:09;;;;;;;11.55;8.90;;;;;;;14.05;47.24;100721.38;5054960;28;20103;-81
2023/01/25 06:32:34;;;;;;;11.07;8.27;;;;;;;14.08;46.99;100721.34;5054436;28;20508;-80
2023/01/25 06:34:59;;;;;;;11.45;7.95;;;;;;;14.10;47.09;100719.59;5054667;28;20029;-80
2023/01/25 06:37:25;;;;;;;11.27;8.25;;;;;;;14.07;47.36;100724.84;5036908;28;20392;-80
2023/01/25 06:39:50;;;;;;;11.55;8.50;;;;;;;14.05;47.38;100727.50;5054414;28;20120;-80
2023/01/25 06:42:16;;;;;;;11.98;7.88;;;;;;;14.03;47.09;100728.38;5051113;28;20029;-81
2023/01/25 06:44:41;;;;;;;11.25;8.15;;;;;;;14.03;47.03;100731.91;5037007;28;20492;-81
2023/01/25 06:47:11;;;;;;;11.55;8.27;;;;;;;14.00;47.24;100733.69;5053208;28;20032;-80
2023/01/25 06:49:37;;;;;;;10.82;7.85;;;;;;;14.05;47.14;100739.75;5054508;28;20425;-81
2023/01/25 06:52:03;;;;;;;10.27;7.78;;;;;;;14.04;47.13;100732.78;5036391;28;20118;-80
2023/01/25 06:54:28;;;;;;;10.13;7.68;;;;;;;14.02;46.93;100730.16;5041610;28;20029;-81
2023/01/25 06:56:53;;;;;;;11.13;7.88;;;;;;;14.05;47.12;100737.13;5049413;28;20028;-81
2023/01/25 06:59:19;;;;;;;11.40;8.73;;;;;;;14.03;47.32;100734.53;5049704;28;20366;-80
2023/01/25 07:01:45;;;;;;;10.73;7.65;;;;;;;14.02;47.11;100737.16;5034253;28;20105;-80
2023/01/25 07:04:11;;;;;;;10.02;7.82;;;;;;;14.03;47.18;100738.88;5043970;28;20106;-80
2023/01/25 07:06:37;;;;;;;10.48;7.85;;;;;;;14.05;47.04;100745.00;5053770;28;20025;-80
2023/01/25 07:09:08;;;;;;;9.48;6.95;;;;;;;13.99;47.11;100731.97;5036157;28;20044;-81
2023/01/25 07:11:34;;;;;;;10.88;7.93;;;;;;;14.02;47.09;100737.16;5054213;28;20492;-80
2023/01/25 07:14:00;;;;;;;9.80;7.18;;;;;;;13.99;46.97;100726.72;5033822;28;20049;-80
2023/01/25 07:16:25;;;;;;;10.00;7.72;;;;;;;14.02;47.13;100731.91;5034078;28;20488;-81
2023/01/25 07:18:51;;;;;;;10.05;7.00;;;;;;;14.00;47.12;100733.69;5038405;28;20028;-80
2023/01/25 07:21:20;;;;;;;10.68;8.18;;;;;;;14.01;47.08;100735.44;5053621;28;20079;-81
2023/01/25 07:23:45;;;;;;;10.65;8.05;;;;;;;13.98;46.90;100740.72;5053636;28;20024;-80
2023/01/25 07:26:16;;;;;;;10.73;8.40;;;;;;;14.00;46.98;100738.94;5053553;28;20103;-80
2023/01/25 07:28:42;;;;;;;11.73;7.88;;;;;;;13.95;47.06;100731.97;5053048;28;20110;-80
2023/01/25 07:31:08;;;;;;;10.77;7.65;;;;;;;13.95;46.90;100737.22;5053435;28;20488;-81
2023/01/25 07:33:33;;;;;;;9.95;8.00;;;;;;;13.96;46.79;100744.22;5038012;28;20025;-80
2023/01/25 07:36:04;;;;;;;11.05;8.40;;;;;;;13.96;46.91;100733.72;5033783;28;20116;-80
2023/01/25 07:38:30;;;;;;;12.48;8.18;;;;;;;13.94;46.83;100751.25;5033516;28;20017;-80
2023/01/25 07:40:55;;;;;;;9.55;6.75;;;;;;;13.93;47.07;100759.13;5033194;28;20076;-80
2023/01/25 07:43:21;;;;;;;11.25;7.82;;;;;;;13.92;46.91;100755.66;5046923;28;20108;-80
2023/01/25 07:45:49;;;;;;;10.43;7.70;;;;;;;13.89;47.08;100752.19;5053210;28;20501;-80
2023/01/25 07:48:17;;;;;;;11.30;7.85;;;;;;;13.90;47.07;100754.78;5053135;28;20037;-80
2023/01/25 07:50:45;;;;;;;10.40;7.80;;;;;;;13.92;46.85;100758.28;5053205;28;20108;-80
2023/01/25 07:53:12;;;;;;;11.13;8.18;;;;;;;13.93;46.95;100759.13;5042265;28;20029;-81
2023/01/25 07:55:37;;;;;;;10.98;8.38;;;;;;;13.89;46.71;100762.69;5037592;28;20026;-81
2023/01/25 07:58:03;;;;;;;9.55;7.20;;;;;;;13.87;46.95;100761.81;5052314;28;20118;-82
2023/01/25 08:00:28;;;;;;;11.75;7.95;;;;;;;13.86;46.88;100767.94;5053113;28;20485;-81
2023/01/25 08:02:54;;;;;;;10.25;7.22;;;;;;;13.84;47.06;100770.59;5046984;28;20024;-81
2023/01/25 08:05:19;;;;;;;11.75;8.25;;;;;;;13.81;46.99;100760.13;5040985;28;20117;-81
2023/01/25 08:07:45;;;;;;;10.88;7.97;;;;;;;13.88;46.83;100772.31;5037437;28;20028;-81
2023/01/25 08:10:12;;;;;;;10.65;7.32;;;;;;;13.87;46.82;100774.94;5055943;28;20045;-81
2023/01/25 08:12:38;;;;;;;10.02;7.05;;;;;;;13.87;46.83;100781.06;5055431;28;20040;-81
2023/01/25 08:15:04;;;;;;;11.52;8.15;;;;;;;13.86;46.80;100784.56;5036632;28;20107;-81
2023/01/25 08:17:32;;;;;;;11.73;7.90;;;;;;;13.83;46.90;100782.84;5054183;28;20041;-81
2023/01/25 08:20:00;;;;;;;10.95;7.72;;;;;;;13.87;46.79;100788.94;5041026;28;20422;-81
2023/01/25 08:22:27;;;;;;;10.63;6.93;;;;;;;13.87;46.89;100785.44;5030633;28;20064;-80
2023/01/25 08:24:52;;;;;;;11.38;7.78;;;;;;;13.86;46.66;100784.56;5016599;28;20025;-81
2023/01/25 08:27:18;;;;;;;9.90;7.18;;;;;;;13.84;46.63;100788.94;5033461;28;20108;-81
2023/01/25 08:29:43;;;;;;;10.18;7.20;;;;;;;13.82;46.86;100783.72;5016029;28;20436;-81
2023/01/25 08:32:09;;;;;;;9.23;7.38;;;;;;;13.82;46.80;100785.47;5035818;28;20033;-80
2023/01/25 08:34:34;;;;;;;9.85;6.97;;;;;;;13.82;46.63;100793.34;5052350;28;20025;-81
2023/01/25 08:37:00;;;;;;;10.88;7.68;;;;;;;13.80;46.87;100785.50;5053321;28;20029;-81
2023/01/25 08:39:26;;;;;;;10.00;7.68;;;;;;;13.81;46.69;100786.38;5052020;28;20488;-81
2023/01/25 08:41:51;;;;;;;9.98;7.25;;;;;;;13.81;46.59;100789.84;5051677;28;20029;-81
2023/01/25 08:44:21;;;;;;;10.68;7.22;;;;;;;13.82;46.58;100798.59;5034929;28;20032;-81
2023/01/25 08:46:47;;;;;;;9.45;7.20;;;;;;;13.84;46.74;100799.44;5052995;28;20021;-81
2023/01/25 08:49:12;;;;;;;10.60;7.38;;;;;;;13.83;46.65;100797.72;5035323;28;20075;-81
2023/01/25 08:51:38;;;;;;;10.57;7.40;;;;;;;13.81;46.67;100792.47;5052685;28;20437;-81
2023/01/25 08:54:07;;;;;;;10.27;7.45;;;;;;;13.87;46.69;100795.91;5052754;28;20032;-80
2023/01/25 08:56:36;;;;;;;10.02;7.28;;;;;;;13.84;46.74;100799.44;5052286;28;20025;-81
2023/01/25 08:59:01;;;;;;;10.65;7.38;;;;;;;13.79;46.57;100798.63;5052403;28;20053;-81
2023/01/25 09:01:26;;;;;;;9.93;7.15;;;;;;;13.83;46.62;100802.97;5052361;28;20501;-80
2023/01/25 09:03:53;;;;;;;10.02;7.07;;;;;;;13.80;46.66;100806.47;5052540;28;20036;-80
2023/01/25 09:06:19;;;;;;;10.82;7.55;;;;;;;13.80;46.68;100810.88;5034237;28;20033;-81
2023/01/25 09:08:44;;;;;;;10.82;7.28;;;;;;;13.83;46.91;100810.84;5052514;28;20082;-80
2023/01/25 09:11:14;;;;;;;9.75;6.63;;;;;;;13.76;46.76;100809.16;5047746;28;20412;-80
2023/01/25 09:13:42;;;;;;;10.40;7.72;;;;;;;13.80;46.80;100816.13;5018119;28;20029;-81
2023/01/25 09:16:10;;;;;;;10.60;7.32;;;;;;;13.81;46.65;100810.00;5036277;28;20032;-79
2023/01/25 09:18:37;;;;;;;9.23;7.10;;;;;;;13.75;46.74;100812.66;5038592;28;20477;-79
2023/01/25 09:21:07;;;;;;;10.75;8.13;;;;;;;13.77;46.51;100810.88;5056332;28;20025;-80
2023/01/25 09:23:33;;;;;;;10.77;7.28;;;;;;;13.77;46.59;100821.38;5056900;28;20060;-81
2023/01/25 09:26:00;;;;;;;10.75;7.50;;;;;;;13.77;46.66;100810.88;5039691;28;20119;-79
2023/01/25 09:28:28;;;;;;;9.52;6.32;;;;;;;13.76;46.51;100819.66;5058446;28;20041;-79
2023/01/25 09:30:59;;;;;;;10.35;7.63;;;;;;;13.76;46.59;100809.16;5058818;28;20037;-79
2023/01/25 09:33:34;;;;;;;10.23;6.95;;;;;;;13.77;46.68;100819.66;5056075;28;20033;-80
2023/01/25 09:36:00;;;;;;;11.55;8.05;;;;;;;13.74;46.57;100818.78;5055570;28;20029;-80
2023/01/25 09:38:26;;;;;;;11.27;8.00;;;;;;;13.73;46.58;100820.53;5055500;28;20060;-79
2023/01/25 09:41:00;;;;;;;9.13;7.20;;;;;;;13.74;46.55;100821.41;5054737;28;20090;-79
2023/01/25 09:43:38;;;;;;;10.80;7.65;;;;;;;13.75;46.48;100807.41;5055125;28;20397;-80
2023/01/25 09:46:24;;;;;;;10.40;6.95;;;;;;;13.75;46.63;100813.53;5055168;28;20037;-79
2023/01/25 09:49:14;;;;;;;11.13;7.68;;;;;;;13.76;46.59;100801.28;5055029;28;20017;-79
2023/01/25 09:52:30;;;;;;;9.73;6.93;;;;;;;13.76;46.50;100807.38;5032729;28;20041;-80
2023/01/25 09:54:57;;;;;;;9.20;6.95;;;;;;;13.76;46.52;100796.03;4976937;28;20042;-79
2023/01/25 09:57:36;;;;;;;10.10;7.18;;;;;;;13.69;46.66;100792.59;4993581;28;20414;-79
2023/01/25 10:00:12;;;;;;;9.05;6.95;;;;;;;13.71;46.64;100795.19;4977269;28;20065;-79
2023/01/25 10:03:16;;;;;;;9.35;7.20;;;;;;;13.72;46.61;100786.44;4993570;28;20023;-79
2023/01/25 10:05:45;;;;;;;9.95;6.95;;;;;;;13.71;46.67;100784.72;4979812;28;20534;-79
2023/01/25 10:08:24;;;;;;;11.25;7.32;;;;;;;13.65;46.68;100786.50;4992860;28;20089;-79
2023/01/25 10:10:57;;;;;;;10.90;7.20;;;;;;;13.66;46.68;100776.91;4993133;28;20042;-79
2023/01/25 10:13:24;;;;;;;11.25;7.47;;;;;;;13.68;46.59;100778.63;4993369;28;20030;-79
2023/01/25 10:15:57;;;;;;;9.35;7.25;;;;;;;13.69;46.45;100776.84;4993262;28;20031;-79
2023/01/25 10:18:43;;;;;;;14.15;8.13;;;;;;;13.70;46.68;100773.34;4993107;28;20097;-79
2023/01/25 10:21:20;;;;;;;9.20;7.30;;;;;;;13.65;46.80;100778.63;4992774;28;20174;-79
2023/01/25 10:24:03;;;;;;;9.82;6.97;;;;;;;13.66;46.60;100783.00;4992641;28;20121;-79
2023/01/25 10:26:33;;;;;;;11.45;7.22;;;;;;;13.67;46.52;100773.38;4976861;28;20076;-79
2023/01/25 10:29:09;;;;;;;10.68;7.38;;;;;;;13.67;46.58;100773.38;4976429;28;20062;-79
2023/01/25 10:31:58;;;;;;;8.90;6.70;;;;;;;13.66;46.44;100772.50;5034069;28;20505;-79
2023/01/25 10:34:31;;;;;;;10.75;6.78;;;;;;;13.65;46.58;100770.75;5054225;28;20037;-79
2023/01/25 10:37:08;;;;;;;9.90;7.13;;;;;;;13.66;46.44;100767.25;5054149;28;20033;-79
2023/01/25 10:39:41;;;;;;;10.15;6.97;;;;;;;13.64;46.44;100758.53;5036236;28;20036;-79
2023/01/25 10:42:12;;;;;;;9.43;6.35;;;;;;;13.64;46.54;100760.28;5025671;28;20523;-80
2023/01/25 10:44:38;;;;;;;10.55;7.72;;;;;;;13.64;46.49;100761.16;5036226;28;20473;-79
2023/01/25 10:47:24;;;;;;;10.48;6.88;;;;;;;13.64;46.52;100758.53;5054101;28;20036;-80
2023/01/25 10:49:57;;;;;;;9.45;6.80;;;;;;;13.66;46.53;100759.38;5036187;28;20120;-80
2023/01/25 10:52:25;;;;;;;9.88;6.68;;;;;;;13.61;46.58;100752.47;5035636;28;20080;-79
2023/01/25 10:55:06;;;;;;;9.80;7.30;;;;;;;13.62;46.50;100744.59;5053830;28;20025;-80
2023/01/25 10:57:33;;;;;;;10.05;7.53;;;;;;;13.62;46.68;100744.59;5053858;28;20033;-79
2023/01/25 11:00:04;;;;;;;10.95;7.55;;;;;;;13.61;46.54;100734.94;5053830;28;20017;-80
2023/01/25 11:02:44;;;;;;;9.82;6.70;;;;;;;13.59;46.54;100734.09;5020386;28;20041;-80
2023/01/25 11:05:31;;;;;;;10.13;6.95;;;;;;;13.59;46.72;100728.84;5033736;28;20490;-79
2023/01/25 11:07:57;;;;;;;;;;;;;;;13.60;46.61;100725.34;5015988;28;20029;-80
2023/01/25 11:10:34;;;;;;;8.98;6.60;;;;;;;13.60;46.48;100730.59;5033860;28;19913;-80
2023/01/25 11:13:15;;;;;;;10.15;6.55;;;;;;;13.60;46.46;100725.34;5053300;28;20397;-80
2023/01/25 11:15:45;;;;;;;10.40;6.90;;;;;;;13.59;46.42;100723.63;5035705;28;20060;-79
2023/01/25 11:18:32;;;;;;;10.13;7.03;;;;;;;13.57;46.50;100717.53;5053544;28;20036;-80
2023/01/25 11:21:06;;;;;;;8.93;6.47;;;;;;;13.59;46.44;100715.75;5033370;28;20033;-80
2023/01/25 11:23:33;;;;;;;8.70;6.30;;;;;;;13.57;46.42;100712.28;5033602;28;20032;-80
2023/01/25 11:26:11;;;;;;;9.32;6.47;;;;;;;13.58;46.39;100713.13;5015852;28;20022;-79
2023/01/25 11:28:36;;;;;;;9.65;6.65;;;;;;;13.56;46.49;100700.91;5033067;28;20127;-80
2023/01/25 11:31:02;;;;;;;9.52;6.57;;;;;;;13.56;46.40;100698.28;5033536;28;20026;-79
2023/01/25 11:33:29;;;;;;;9.93;7.10;;;;;;;13.54;46.28;100702.69;5015027;28;20546;-80
2023/01/25 11:36:12;;;;;;;9.57;7.13;;;;;;;13.54;46.26;100692.19;5032992;28;20044;-79
2023/01/25 11:38:53;;;;;;;11.13;7.20;;;;;;;13.56;46.25;100682.53;5033832;28;20087;-80
2023/01/25 11:41:29;;;;;;;9.18;6.65;;;;;;;13.56;46.21;100694.78;5053210;28;20493;-79
2023/01/25 11:44:32;;;;;;;8.32;6.28;;;;;;;13.55;46.20;100693.03;5052947;28;20017;-79
2023/01/25 11:47:40;;;;;;;9.52;6.40;;;;;;;13.55;46.22;100690.41;5032275;28;20028;-79
2023/01/25 11:50:14;;;;;;;9.05;6.63;;;;;;;13.52;46.31;100674.72;5034897;28;20029;-80
2023/01/25 11:52:39;;;;;;;9.27;6.50;;;;;;;13.52;46.24;100674.72;5036978;28;20029;-80
2023/01/25 11:55:27;;;;;;;8.75;6.18;;;;;;;13.49;46.19;100674.75;5032941;28;20036;-79
2023/01/25 11:57:58;;;;;;;9.07;5.97;;;;;;;13.52;46.32;100677.34;5033033;28;20033;-80
2023/01/25 12:00:45;;;;;;;9.23;6.45;;;;;;;13.48;46.21;100671.28;5032902;28;20462;-79
2023/01/25 12:03:22;;;;;;;9.98;6.80;;;;;;;13.50;46.20;100655.50;5015264;28;20123;-79
2023/01/25 12:05:54;;;;;;;8.50;6.22;;;;;;;13.50;46.21;100661.63;5032531;28;20501;-80
2023/01/25 12:08:48;;;;;;;8.95;6.18;;;;;;;13.51;46.19;100657.28;5032994;28;20036;-80
2023/01/25 12:11:28;;;;;;;10.00;6.60;;;;;;;13.52;46.26;100659.00;5038227;28;20033;-79
2023/01/25 12:14:13;;;;;;;8.15;5.70;;;;;;;13.50;46.24;100660.75;5057675;28;20025;-80
2023/01/25 12:17:00;;;;;;;8.30;5.72;;;;;;;13.48;46.19;100652.03;5057482;28;20025;-80
2023/01/25 12:19:54;;;;;;;7.85;5.90;;;;;;;13.48;46.19;100639.81;5056950;28;20056;-79
2023/01/25 12:22:37;;;;;;;8.65;5.40;;;;;;;13.49;46.21;100636.28;5055491;28;20043;-79
2023/01/25 12:25:21;;;;;;;10.00;6.72;;;;;;;13.48;46.16;100628.44;5036694;28;20033;-80
2023/01/25 12:27:59;;;;;;;9.63;6.85;;;;;;;13.49;46.12;100622.31;5053408;28;20049;-80
2023/01/25 12:30:41;;;;;;;9.25;6.55;;;;;;;13.48;46.23;100613.59;5053953;28;20455;-80
2023/01/25 12:33:26;;;;;;;8.57;6.10;;;;;;;13.49;46.19;100617.06;5016212;28;20060;-79
2023/01/25 12:36:12;;;;;;;8.35;6.15;;;;;;;13.49;46.22;100612.69;5032606;28;20116;-79
2023/01/25 12:39:09;;;;;;;9.27;6.45;;;;;;;13.47;46.19;100608.34;5033839;28;20041;-80
2023/01/25 12:41:39;;;;;;;;;;;;;;;13.47;46.21;100606.56;5047066;28;20482;-79
2023/01/25 12:44:26;;;;;;;8.73;5.93;;;;;;;13.46;46.13;100601.34;5033290;28;20324;-80
2023/01/25 12:47:16;;;;;;;7.78;5.43;;;;;;;13.47;46.31;100593.47;5021959;28;20059;-79
2023/01/25 12:50:08;;;;;;;9.68;6.65;;;;;;;13.48;46.12;100581.25;5051803;28;20026;-80
2023/01/25 12:52:36;;;;;;;9.10;6.68;;;;;;;13.45;46.17;100578.63;5051012;28;20493;-80
2023/01/25 12:55:06;;;;;;;8.85;6.55;;;;;;;13.42;46.20;100576.91;5056522;28;20024;-80
2023/01/25 12:57:40;;;;;;;9.15;6.05;;;;;;;13.42;46.24;100575.16;5056401;28;20020;-80
2023/01/25 13:00:30;;;;;;;8.52;6.07;;;;;;;13.44;46.17;100569.88;5057214;28;20060;-80
2023/01/25 13:03:19;;;;;;;9.38;6.68;;;;;;;13.43;46.05;100549.81;5038529;28;20026;-80
2023/01/25 13:05:55;;;;;;;9.10;5.80;;;;;;;13.40;46.08;100566.44;5036357;28;20079;-80
2023/01/25 13:08:27;;;;;;;9.10;6.05;;;;;;;13.41;46.05;100554.19;5035941;28;20037;-80
2023/01/25 13:11:24;;;;;;;8.23;6.18;;;;;;;13.39;46.24;100554.22;5036525;28;20163;-80
2023/01/25 13:13:49;;;;;;;9.57;6.47;;;;;;;13.40;46.21;100550.69;5056166;28;20028;-81
2023/01/25 13:16:28;;;;;;;8.95;6.22;;;;;;;13.37;46.30;100545.47;5056128;28;20028;-80
2023/01/25 13:18:54;;;;;;;9.15;6.00;;;;;;;13.39;46.14;100543.72;5056149;28;20056;-81
2023/01/25 13:21:40;;;;;;;8.45;5.85;;;;;;;13.41;46.15;100534.09;5056221;28;20070;-81
2023/01/25 13:24:19;;;;;;;9.70;6.33;;;;;;;13.41;46.13;100535.81;5038326;28;20035;-81
2023/01/25 13:26:53;;;;;;;9.10;6.05;;;;;;;13.39;46.18;100532.38;5038255;28;20385;-80
2023/01/25 13:29:31;;;;;;;9.82;6.68;;;;;;;13.40;46.13;100523.59;5056049;28;20057;-80
2023/01/25 13:31:57;;;;;;;8.80;5.97;;;;;;;13.35;46.09;100523.66;5055649;28;20039;-81
2023/01/25 13:34:35;;;;;;;9.13;6.68;;;;;;;13.35;46.10;100523.66;5055764;28;20481;-79
2023/01/25 13:37:22;;;;;;;9.98;6.82;;;;;;;13.37;46.19;100521.88;5055698;28;20032;-81
2023/01/25 13:39:50;;;;;;;9.23;6.35;;;;;;;13.35;46.01;100515.81;5055875;28;20432;-79
2023/01/25 13:42:21;;;;;;;11.02;7.35;;;;;;;13.31;46.16;100519.34;5044371;28;20026;-80
2023/01/25 13:44:49;;;;;;;9.98;6.07;;;;;;;13.35;46.14;100520.16;5035786;28;20531;-81
2023/01/25 13:47:19;;;;;;;10.10;6.63;;;;;;;13.35;46.01;100523.66;5035293;28;20104;-80
2023/01/25 13:49:50;;;;;;;8.80;6.38;;;;;;;13.33;45.79;100517.59;5034224;28;20029;-80
2023/01/25 13:52:19;;;;;;;9.90;6.50;;;;;;;13.35;46.10;100525.41;5046563;28;20488;-80
2023/01/25 13:54:46;;;;;;;10.25;6.15;;;;;;;13.37;46.09;100521.88;5037432;28;20033;-80
2023/01/25 13:57:18;;;;;;;9.05;6.43;;;;;;;13.32;46.14;100521.06;5054776;28;20388;-80
2023/01/25 13:59:43;;;;;;;10.18;6.85;;;;;;;13.31;46.07;100527.19;5055495;28;20033;-79
2023/01/25 14:02:27;;;;;;;9.45;6.20;;;;;;;13.34;46.07;100524.56;5045153;28;20385;-81
2023/01/25 14:04:53;;;;;;;9.85;6.85;;;;;;;13.33;45.91;100512.34;5035458;28;20037;-80
2023/01/25 14:07:23;;;;;;;10.48;6.20;;;;;;;13.32;46.19;100514.97;5035249;28;20436;-80
2023/01/25 14:09:49;;;;;;;10.48;6.63;;;;;;;13.33;46.17;100512.34;5035128;28;20564;-79
2023/01/25 14:12:36;;;;;;;9.70;6.65;;;;;;;13.30;46.16;100512.38;5045708;28;20028;-80
2023/01/25 14:15:19;;;;;;;8.73;6.13;;;;;;;13.31;46.11;100514.09;5054771;28;20040;-80
2023/01/25 14:17:45;;;;;;;9.35;6.28;;;;;;;13.25;46.12;100509.81;5036966;28;20039;-79
2023/01/25 14:20:21;;;;;;;9.25;6.53;;;;;;;13.29;46.19;100518.50;5051419;28;20127;-80
2023/01/25 14:22:51;;;;;;;9.90;6.78;;;;;;;13.26;46.11;100515.91;5054305;28;20388;-80
2023/01/25 14:25:21;;;;;;;10.43;6.85;;;;;;;13.28;46.14;100522.00;5053966;28;20025;-80
2023/01/25 14:27:49;;;;;;;9.93;6.63;;;;;;;13.29;46.03;100514.13;5053924;28;20572;-80
2023/01/25 14:30:32;;;;;;;9.95;6.88;;;;;;;13.28;46.11;100503.66;5036094;28;20488;-80
2023/01/25 14:33:14;;;;;;;11.00;7.75;;;;;;;13.28;46.03;100508.91;5054375;28;20068;-80
2023/01/25 14:35:41;;;;;;;9.68;6.55;;;;;;;13.28;46.05;100498.41;5054489;28;20092;-81
2023/01/25 14:38:34;;;;;;;9.60;6.72;;;;;;;13.29;46.10;100501.03;5054253;28;20473;-80
2023/01/25 14:41:17;;;;;;;9.98;6.75;;;;;;;13.24;45.99;100507.19;5050005;28;20107;-80
2023/01/25 14:43:47;;;;;;;10.60;7.32;;;;;;;13.28;45.95;100504.50;5043753;28;20021;-79
2023/01/25 14:46:25;;;;;;;9.57;6.78;;;;;;;13.27;45.95;100512.41;5050478;28;20051;-80
2023/01/25 14:49:04;;;;;;;8.73;6.05;;;;;;;13.25;46.00;100508.94;5036131;28;20500;-81
2023/01/25 14:51:30;;;;;;;10.55;7.00;;;;;;;13.26;46.08;100513.28;5054094;28;20374;-81
2023/01/25 14:54:03;;;;;;;10.35;6.72;;;;;;;13.26;45.94;100515.91;5044756;28;20032;-80
2023/01/25 14:56:31;;;;;;;9.38;6.60;;;;;;;13.26;46.04;100510.66;5050689;28;20035;-80
2023/01/25 14:58:57;;;;;;;9.75;6.78;;;;;;;13.24;46.00;100508.06;5053728;28;20048;-80
2023/01/25 15:01:29;;;;;;;9.48;6.38;;;;;;;13.23;45.95;100506.31;5053741;28;20048;-80
2023/01/25 15:03:55;;;;;;;11.85;7.18;;;;;;;13.23;46.00;100500.22;5053523;28;20037;-80
2023/01/25 15:06:21;;;;;;;9.20;6.15;;;;;;;13.24;46.06;100499.34;5053444;28;20500;-80
2023/01/25 15:08:46;;;;;;;10.45;6.75;;;;;;;13.24;45.97;100494.97;5052070;28;20020;-80
2023/01/25 15:11:44;;;;;;;10.27;6.68;;;;;;;13.26;45.99;100500.16;5053124;28;20053;-79
2023/01/25 15:14:17;;;;;;;;;;;;;;;13.22;45.97;100495.88;5053574;28;20017;-80
2023/01/25 15:16:43;;;;;;;9.82;6.50;;;;;;;13.23;46.07;100494.97;5053434;28;19920;-80
2023/01/25 15:19:27;;;;;;;10.20;6.60;;;;;;;13.19;46.05;100503.75;5053261;28;20017;-80
2023/01/25 15:21:54;;;;;;;9.40;6.90;;;;;;;13.18;46.22;100507.28;5053467;28;20391;-81
2023/01/25 15:24:20;;;;;;;9.18;6.60;;;;;;;13.18;46.03;100517.75;5053320;28;20017;-80
2023/01/25 15:26:50;;;;;;;9.88;6.82;;;;;;;13.15;46.04;100522.16;5036126;28;20025;-80
2023/01/25 15:29:21;;;;;;;8.88;6.22;;;;;;;13.18;45.96;100517.75;5053621;28;20060;-80
2023/01/25 15:31:49;;;;;;;9.57;6.82;;;;;;;13.15;46.01;100516.91;5054045;28;20036;-80
2023/01/25 15:34:29;;;;;;;8.88;6.60;;;;;;;13.18;46.05;100517.75;5053763;28;20024;-80
2023/01/25 15:36:54;;;;;;;11.23;6.82;;;;;;;13.14;45.94;100523.00;5035674;28;20028;-81
2023/01/25 15:39:20;;;;;;;11.00;7.22;;;;;;;13.14;46.09;100517.78;5036161;28;20025;-81
2023/01/25 15:41:46;;;;;;;10.73;6.65;;;;;;;13.14;46.12;100523.00;5053824;28;20021;-80
2023/01/25 15:44:12;;;;;;;10.70;6.63;;;;;;;13.13;46.17;100516.03;5036004;28;20028;-80
2023/01/25 15:46:41;;;;;;;9.02;6.45;;;;;;;13.13;46.13;100500.31;5052994;28;20013;-81
2023/01/25 15:49:12;;;;;;;9.88;6.75;;;;;;;13.14;46.14;100495.97;5039837;28;20480;-81
2023/01/25 15:51:38;;;;;;;10.15;6.60;;;;;;;13.14;46.09;100495.97;5053564;28;20056;-81
2023/01/25 15:54:04;;;;;;;9.18;6.68;;;;;;;13.13;46.00;100494.22;5035699;28;20033;-81
2023/01/25 15:56:33;;;;;;;9.80;6.40;;;;;;;13.11;46.06;100496.84;5049954;28;20036;-81
2023/01/25 15:59:00;;;;;;;9.40;6.63;;;;;;;13.12;46.04;100503.84;5053021;28;20036;-81
2023/01/25 16:01:27;;;;;;;10.10;7.00;;;;;;;13.12;45.98;100500.38;5054153;28;20021;-81
2023/01/25 16:03:54;;;;;;;10.00;6.88;;;;;;;13.12;46.04;100498.59;5035685;28;20040;-81
2023/01/25 16:06:44;;;;;;;9.57;6.60;;;;;;;13.08;45.95;100496.88;5036635;28;20037;-81
2023/01/25 16:09:21;;;;;;;9.25;6.28;;;;;;;13.11;46.09;100498.59;5055205;28;20063;-80
2023/01/25 16:11:50;;;;;;;10.73;6.72;;;;;;;13.10;46.03;100505.63;5054176;28;20377;-82
2023/01/25 16:14:15;;;;;;;10.05;6.63;;;;;;;13.10;46.10;100505.63;5054848;28;20025;-81
2023/01/25 16:16:48;;;;;;;9.48;6.10;;;;;;;13.11;46.16;100503.84;5054245;28;20508;-81